Time;durP1;ratioP1;P1;durP2;ratioP2;P2;SDS_P1;SDS_P2;PMS_P1;PMS_P2;Temp;Humidity;BMP_temperature;BMP_pressure;BME280_temperature;BME280_humidity;BME280_pressure;Samples;Min_cycle;Max_cycle;Signal;HPM_P1;HPM_P2
2023/09/15 00:00:12;;;;;;;0.10;0.10;;;;;;;;;;5105054;28;20236;-75
2023/09/15 00:02:38;;;;;;;0.10;0.10;;;;;;;;;;5093859;28;20220;-75
2023/09/15 00:05:08;;;;;;;0.10;0.10;;;;;;;;;;5105418;28;20206;-74
2023/09/15 00:07:35;;;;;;;0.10;0.10;;;;;;;;;;5093768;28;20276;-75
2023/09/15 00:10:01;;;;;;;0.10;0.10;;;;;;;;;;5105396;28;20253;-75
2023/09/15 00:12:27;;;;;;;0.30;0.30;;;;;;;;;;5110661;28;20506;-75
2023/09/15 00:14:54;;;;;;;0.10;0.10;;;;;;;;;;5105300;28;20204;-75
2023/09/15 00:17:21;;;;;;;0.10;0.10;;;;;;;;;;5110512;28;20263;-74
2023/09/15 00:19:48;;;;;;;0.10;0.10;;;;;;;;;;5105170;28;20532;-76
2023/09/15 00:22:14;;;;;;;1.53;1.53;;;;;;;;;;5110560;28;20312;-75
2023/09/15 00:24:40;;;;;;;0.10;0.10;;;;;;;;;;5104915;28;20225;-75
2023/09/15 00:27:07;;;;;;;0.10;0.10;;;;;;;;;;5110351;28;20441;-74
2023/09/15 00:29:33;;;;;;;0.10;0.10;;;;;;;;;;5104728;28;20276;-74
2023/09/15 00:32:00;;;;;;;0.10;0.10;;;;;;;;;;5109277;28;20297;-75
2023/09/15 00:34:27;;;;;;;0.10;0.10;;;;;;;;;;5105660;28;20252;-74
2023/09/15 00:36:54;;;;;;;0.17;0.17;;;;;;;;;;5108340;28;20243;-75
2023/09/15 00:39:20;;;;;;;0.10;0.10;;;;;;;;;;5106074;28;20234;-75
2023/09/15 00:41:47;;;;;;;0.00;0.00;;;;;;;;;;5107483;28;20581;-75
2023/09/15 00:44:13;;;;;;;0.10;0.10;;;;;;;;;;5107232;28;20447;-75
2023/09/15 00:46:40;;;;;;;0.10;0.10;;;;;;;;;;5106516;28;20649;-75
2023/09/15 00:49:06;;;;;;;0.10;0.10;;;;;;;;;;5107767;28;20196;-74
2023/09/15 00:51:35;;;;;;;0.10;0.10;;;;;;;;;;5105492;28;20245;-75
2023/09/15 00:54:01;;;;;;;0.10;0.10;;;;;;;;;;5108398;28;20461;-75
2023/09/15 00:56:28;;;;;;;0.10;0.10;;;;;;;;;;5104746;28;20603;-75
2023/09/15 00:58:54;;;;;;;0.10;0.10;;;;;;;;;;5109564;28;20239;-75
2023/09/15 01:01:21;;;;;;;0.10;0.10;;;;;;;;;;5103782;28;20285;-75
2023/09/15 01:03:47;;;;;;;0.10;0.10;;;;;;;;;;5110141;28;20225;-75
2023/09/15 01:06:14;;;;;;;0.10;0.10;;;;;;;;;;5102684;28;20245;-74
2023/09/15 01:08:42;;;;;;;0.10;0.10;;;;;;;;;;5111119;28;20444;-74
2023/09/15 01:11:10;;;;;;;0.30;0.30;;;;;;;;;;5101335;28;20278;-75
2023/09/15 01:13:36;;;;;;;0.10;0.10;;;;;;;;;;5111373;28;20224;-74
2023/09/15 01:16:04;;;;;;;0.10;0.10;;;;;;;;;;5101125;28;20255;-74
2023/09/15 01:18:34;;;;;;;0.10;0.10;;;;;;;;;;5112025;28;20244;-75
2023/09/15 01:21:15;;;;;;;0.30;0.30;;;;;;;;;;5100840;28;20301;-75
2023/09/15 01:24:00;;;;;;;0.10;0.10;;;;;;;;;;5070299;28;20250;-75
2023/09/15 01:26:41;;;;;;;0.10;0.10;;;;;;;;;;5104136;28;20566;-75
2023/09/15 01:29:19;;;;;;;0.10;0.10;;;;;;;;;;5103987;28;20276;-75
2023/09/15 01:31:47;;;;;;;0.10;0.10;;;;;;;;;;5106674;28;20260;-75
2023/09/15 01:34:16;;;;;;;0.10;0.10;;;;;;;;;;5106113;28;20291;-74
2023/09/15 01:36:43;;;;;;;0.10;0.10;;;;;;;;;;5106074;28;20359;-75
2023/09/15 01:39:10;;;;;;;0.10;0.10;;;;;;;;;;5106598;28;20218;-75
2023/09/15 01:41:36;;;;;;;0.10;0.10;;;;;;;;;;5105168;28;20307;-75
2023/09/15 01:44:03;;;;;;;0.10;0.10;;;;;;;;;;5107853;28;20367;-75
2023/09/15 01:46:29;;;;;;;1.30;1.30;;;;;;;;;;5104208;28;20263;-74
2023/09/15 01:48:58;;;;;;;0.10;0.10;;;;;;;;;;5108474;28;20235;-75
2023/09/15 01:51:25;;;;;;;0.10;0.10;;;;;;;;;;5103548;28;20284;-75
2023/09/15 01:53:52;;;;;;;0.10;0.10;;;;;;;;;;5108874;28;20235;-74
2023/09/15 01:56:19;;;;;;;0.10;0.10;;;;;;;;;;5102777;28;20246;-74
2023/09/15 01:58:45;;;;;;;0.10;0.10;;;;;;;;;;5109975;28;20204;-75
2023/09/15 02:01:12;;;;;;;0.33;0.33;;;;;;;;;;5101733;28;20261;-76
2023/09/15 02:03:38;;;;;;;0.10;0.10;;;;;;;;;;5110636;28;20232;-75
2023/09/15 02:06:06;;;;;;;0.10;0.10;;;;;;;;;;5100991;28;20448;-74
2023/09/15 02:08:33;;;;;;;0.10;0.10;;;;;;;;;;5111672;28;20447;-75
2023/09/15 02:10:59;;;;;;;0.10;0.10;;;;;;;;;;5100102;28;20244;-74
2023/09/15 02:13:25;;;;;;;0.10;0.10;;;;;;;;;;5111997;28;20228;-74
2023/09/15 02:15:52;;;;;;;0.10;0.10;;;;;;;;;;5099105;28;20468;-75
2023/09/15 02:18:20;;;;;;;0.10;0.10;;;;;;;;;;5113384;28;20486;-75
2023/09/15 02:20:53;;;;;;;0.10;0.10;;;;;;;;;;5098272;28;20240;-75
2023/09/15 02:23:20;;;;;;;0.10;0.10;;;;;;;;;;5116684;28;20216;-75
2023/09/15 02:25:47;;;;;;;0.10;0.10;;;;;;;;;;5102422;28;20327;-75
2023/09/15 02:28:13;;;;;;;0.10;0.10;;;;;;;;;;5117851;28;20236;-74
2023/09/15 02:30:40;;;;;;;0.10;0.10;;;;;;;;;;5101212;28;20240;-74
2023/09/15 02:33:06;;;;;;;0.10;0.10;;;;;;;;;;5118689;28;20439;-75
2023/09/15 02:35:33;;;;;;;0.10;0.10;;;;;;;;;;5100272;28;20450;-75
2023/09/15 02:37:59;;;;;;;0.00;0.00;;;;;;;;;;5119701;28;20437;-75
2023/09/15 02:40:27;;;;;;;0.10;0.10;;;;;;;;;;5099103;28;20215;-74
2023/09/15 02:42:53;;;;;;;0.10;0.10;;;;;;;;;;5120434;28;20478;-75
2023/09/15 02:45:19;;;;;;;0.10;0.10;;;;;;;;;;5098314;28;20290;-75
2023/09/15 02:47:46;;;;;;;0.60;0.60;;;;;;;;;;5120874;28;20192;-75
2023/09/15 02:50:12;;;;;;;0.10;0.10;;;;;;;;;;5097185;28;20272;-74
2023/09/15 02:52:39;;;;;;;0.10;0.10;;;;;;;;;;5121896;28;20223;-76
2023/09/15 02:55:06;;;;;;;0.10;0.10;;;;;;;;;;5106737;28;20375;-75
2023/09/15 02:57:33;;;;;;;0.10;0.10;;;;;;;;;;5112105;28;20239;-74
2023/09/15 03:00:00;;;;;;;0.10;0.10;;;;;;;;;;5106819;28;20217;-75
2023/09/15 03:02:26;;;;;;;0.10;0.10;;;;;;;;;;5112175;28;20254;-75
2023/09/15 03:04:53;;;;;;;0.10;0.10;;;;;;;;;;5106438;28;20290;-75
2023/09/15 03:07:19;;;;;;;0.10;0.10;;;;;;;;;;5112179;28;20479;-74
2023/09/15 03:09:46;;;;;;;0.10;0.10;;;;;;;;;;5106394;28;20458;-74
2023/09/15 03:12:12;;;;;;;0.10;0.10;;;;;;;;;;5111795;28;20247;-74
2023/09/15 03:14:40;;;;;;;0.10;0.10;;;;;;;;;;5106179;28;20200;-75
2023/09/15 03:17:07;;;;;;;0.10;0.10;;;;;;;;;;5111522;28;20239;-75
2023/09/15 03:19:33;;;;;;;0.10;0.10;;;;;;;;;;5106370;28;20400;-75
2023/09/15 03:22:00;;;;;;;0.10;0.10;;;;;;;;;;5110684;28;20239;-75
2023/09/15 03:24:26;;;;;;;0.10;0.10;;;;;;;;;;5107061;28;20260;-75
2023/09/15 03:26:52;;;;;;;0.10;0.10;;;;;;;;;;5109623;28;20259;-75
2023/09/15 03:29:19;;;;;;;0.10;0.10;;;;;;;;;;5107773;28;20205;-74
2023/09/15 03:31:46;;;;;;;0.10;0.10;;;;;;;;;;5108571;28;20240;-75
2023/09/15 03:34:13;;;;;;;0.10;0.10;;;;;;;;;;5107859;28;20216;-76
2023/09/15 03:36:39;;;;;;;0.10;0.10;;;;;;;;;;5107862;28;20249;-78
2023/09/15 03:39:05;;;;;;;0.10;0.10;;;;;;;;;;5109671;28;20211;-78
2023/09/15 03:41:32;;;;;;;0.10;0.10;;;;;;;;;;5106713;28;20245;-78
2023/09/15 03:43:59;;;;;;;0.10;0.10;;;;;;;;;;5110464;28;20486;-73
2023/09/15 03:46:25;;;;;;;0.10;0.10;;;;;;;;;;5105829;28;20256;-76
2023/09/15 03:48:53;;;;;;;0.10;0.10;;;;;;;;;;5111011;28;20271;-76
2023/09/15 03:51:20;;;;;;;0.10;0.10;;;;;;;;;;5104822;28;20250;-77
2023/09/15 03:53:46;;;;;;;0.10;0.10;;;;;;;;;;5111694;28;20207;-77
2023/09/15 03:56:13;;;;;;;0.10;0.10;;;;;;;;;;5103928;28;20302;-76
2023/09/15 03:58:39;;;;;;;0.10;0.10;;;;;;;;;;5112689;28;20211;-76
2023/09/15 04:01:06;;;;;;;0.10;0.10;;;;;;;;;;5102464;28;20250;-75
2023/09/15 04:03:33;;;;;;;0.10;0.10;;;;;;;;;;5113552;28;20231;-76
2023/09/15 04:06:01;;;;;;;0.10;0.10;;;;;;;;;;5101965;28;20250;-76
2023/09/15 04:08:28;;;;;;;0.10;0.10;;;;;;;;;;5113894;28;20235;-76
2023/09/15 04:10:56;;;;;;;0.10;0.10;;;;;;;;;;5101253;28;20249;-75
2023/09/15 04:13:23;;;;;;;0.10;0.10;;;;;;;;;;5114622;28;20403;-76
2023/09/15 04:15:50;;;;;;;0.10;0.10;;;;;;;;;;5100463;28;20615;-76
2023/09/15 04:18:16;;;;;;;0.10;0.10;;;;;;;;;;5115291;28;20205;-75
2023/09/15 04:20:43;;;;;;;0.10;0.10;;;;;;;;;;5099714;28;20258;-75
2023/09/15 04:23:11;;;;;;;0.10;0.10;;;;;;;;;;5115881;28;20201;-75
2023/09/15 04:25:37;;;;;;;0.10;0.10;;;;;;;;;;5098763;28;20246;-76
2023/09/15 04:28:04;;;;;;;0.10;0.10;;;;;;;;;;5116796;28;20193;-76
2023/09/15 04:30:30;;;;;;;0.10;0.10;;;;;;;;;;5097899;28;20580;-74
2023/09/15 04:32:58;;;;;;;0.10;0.10;;;;;;;;;;5117490;28;20399;-75
2023/09/15 04:35:25;;;;;;;0.10;0.10;;;;;;;;;;5096924;28;20248;-74
2023/09/15 04:37:51;;;;;;;0.10;0.10;;;;;;;;;;5118063;28;20199;-75
2023/09/15 04:40:19;;;;;;;0.27;0.27;;;;;;;;;;5095948;28;20520;-75
2023/09/15 04:42:45;;;;;;;0.10;0.10;;;;;;;;;;5119064;28;20198;-75
2023/09/15 04:45:12;;;;;;;0.10;0.10;;;;;;;;;;5093832;28;20292;-74
2023/09/15 04:47:40;;;;;;;0.10;0.10;;;;;;;;;;5119816;28;20198;-75
2023/09/15 04:50:07;;;;;;;0.10;0.10;;;;;;;;;;5104432;28;20206;-74
2023/09/15 04:52:34;;;;;;;0.10;0.10;;;;;;;;;;5092753;28;20232;-74
2023/09/15 04:55:00;;;;;;;0.10;0.10;;;;;;;;;;5104521;28;20353;-74
2023/09/15 04:57:28;;;;;;;0.10;0.10;;;;;;;;;;5110037;28;20343;-74
2023/09/15 04:59:55;;;;;;;0.10;0.10;;;;;;;;;;5104287;28;20238;-74
2023/09/15 05:02:23;;;;;;;0.13;0.13;;;;;;;;;;5109809;28;20244;-75
2023/09/15 05:04:50;;;;;;;0.10;0.10;;;;;;;;;;5104134;28;20230;-74
2023/09/15 05:07:16;;;;;;;0.10;0.10;;;;;;;;;;5109812;28;20238;-74
2023/09/15 05:09:43;;;;;;;0.10;0.10;;;;;;;;;;5104018;28;20280;-75
2023/09/15 05:12:09;;;;;;;0.10;0.10;;;;;;;;;;5109569;28;20235;-73
2023/09/15 05:14:37;;;;;;;0.10;0.10;;;;;;;;;;5103940;28;20282;-74
2023/09/15 05:17:03;;;;;;;0.10;0.10;;;;;;;;;;5108782;28;20260;-74
2023/09/15 05:19:30;;;;;;;0.10;0.10;;;;;;;;;;5104374;28;21910;-74
2023/09/15 05:21:56;;;;;;;0.10;0.10;;;;;;;;;;5107913;28;20269;-75
2023/09/15 05:24:22;;;;;;;0.10;0.10;;;;;;;;;;5104932;28;20266;-74
2023/09/15 05:26:49;;;;;;;0.10;0.10;;;;;;;;;;5106962;28;20298;-75
2023/09/15 05:29:15;;;;;;;0.10;0.10;;;;;;;;;;5105969;28;20209;-75
2023/09/15 05:31:43;;;;;;;0.10;0.10;;;;;;;;;;5105975;28;20321;-74
2023/09/15 05:34:09;;;;;;;0.10;0.10;;;;;;;;;;5106918;28;20271;-74
2023/09/15 05:36:36;;;;;;;0.10;0.10;;;;;;;;;;5105180;28;20316;-74
2023/09/15 05:39:03;;;;;;;0.10;0.10;;;;;;;;;;5107875;28;20241;-73
2023/09/15 05:41:29;;;;;;;0.10;0.10;;;;;;;;;;5104361;28;20245;-74
2023/09/15 05:43:56;;;;;;;0.10;0.10;;;;;;;;;;5108751;28;20506;-76
2023/09/15 05:46:22;;;;;;;0.10;0.10;;;;;;;;;;5103275;28;20258;-75
2023/09/15 05:48:50;;;;;;;0.10;0.10;;;;;;;;;;5109761;28;20527;-75
2023/09/15 05:51:17;;;;;;;0.10;0.10;;;;;;;;;;5102669;28;20289;-75
2023/09/15 05:53:43;;;;;;;2.00;1.90;;;;;;;;;;5110359;28;20251;-75
2023/09/15 05:56:09;;;;;;;0.10;0.10;;;;;;;;;;5101536;28;20311;-75
2023/09/15 05:58:36;;;;;;;0.10;0.10;;;;;;;;;;5115168;28;20225;-76
2023/09/15 06:01:03;;;;;;;0.10;0.10;;;;;;;;;;5104179;28;20256;-75
2023/09/15 06:03:29;;;;;;;0.10;0.10;;;;;;;;;;5116933;28;20203;-75
2023/09/15 06:05:57;;;;;;;0.10;0.10;;;;;;;;;;5103739;28;20495;-75
2023/09/15 06:08:23;;;;;;;0.10;0.10;;;;;;;;;;5117094;28;20449;-75
2023/09/15 06:10:50;;;;;;;0.10;0.10;;;;;;;;;;5103108;28;20249;-75
2023/09/15 06:13:16;;;;;;;0.10;0.10;;;;;;;;;;5117958;28;20223;-75
2023/09/15 06:15:43;;;;;;;0.10;0.10;;;;;;;;;;5101899;28;20311;-76
2023/09/15 06:18:09;;;;;;;0.10;0.10;;;;;;;;;;5118264;28;20206;-76
2023/09/15 06:20:36;;;;;;;0.10;0.10;;;;;;;;;;5100907;28;20254;-76
2023/09/15 06:23:04;;;;;;;0.10;0.10;;;;;;;;;;5119603;28;20260;-75
2023/09/15 06:25:31;;;;;;;0.47;0.47;;;;;;;;;;5099782;28;20242;-76
2023/09/15 06:27:59;;;;;;;0.10;0.10;;;;;;;;;;5120358;28;20416;-75
2023/09/15 06:30:25;;;;;;;0.10;0.10;;;;;;;;;;5099281;28;20540;-75
2023/09/15 06:32:51;;;;;;;0.10;0.10;;;;;;;;;;5120866;28;20438;-76
2023/09/15 06:35:19;;;;;;;0.10;0.10;;;;;;;;;;5097928;28;20200;-75
2023/09/15 06:37:45;;;;;;;0.10;0.10;;;;;;;;;;5121275;28;20254;-76
2023/09/15 06:40:13;;;;;;;0.10;0.10;;;;;;;;;;5097445;28;20386;-75
2023/09/15 06:42:39;;;;;;;0.10;0.10;;;;;;;;;;5122265;28;20192;-76
2023/09/15 06:45:06;;;;;;;0.10;0.10;;;;;;;;;;5106645;28;20467;-75
2023/09/15 06:47:33;;;;;;;0.10;0.10;;;;;;;;;;5095151;28;20213;-76
2023/09/15 06:49:59;;;;;;;0.10;0.10;;;;;;;;;;5107011;28;20235;-75
2023/09/15 06:52:25;;;;;;;0.10;0.10;;;;;;;;;;5112380;28;20630;-76
2023/09/15 06:54:52;;;;;;;0.10;0.10;;;;;;;;;;5106580;28;20200;-76
2023/09/15 06:57:20;;;;;;;0.20;0.20;;;;;;;;;;5112330;28;20262;-75
2023/09/15 06:59:46;;;;;;;0.10;0.10;;;;;;;;;;5106658;28;20502;-76
2023/09/15 07:02:12;;;;;;;0.10;0.10;;;;;;;;;;5112026;28;20238;-75
2023/09/15 07:04:39;;;;;;;0.10;0.10;;;;;;;;;;5106418;28;20261;-76
2023/09/15 07:07:05;;;;;;;0.10;0.10;;;;;;;;;;5111522;28;20251;-75
2023/09/15 07:09:31;;;;;;;0.10;0.10;;;;;;;;;;5105759;28;20205;-75
2023/09/15 07:11:58;;;;;;;0.10;0.10;;;;;;;;;;5110769;28;20262;-76
2023/09/15 07:14:26;;;;;;;0.10;0.10;;;;;;;;;;5107556;28;20212;-75
2023/09/15 07:16:52;;;;;;;0.10;0.10;;;;;;;;;;5109566;28;20238;-76
2023/09/15 07:19:18;;;;;;;0.10;0.10;;;;;;;;;;5107994;28;20273;-75
2023/09/15 07:21:44;;;;;;;0.10;0.10;;;;;;;;;;5108400;28;20243;-76
2023/09/15 07:24:11;;;;;;;0.10;0.10;;;;;;;;;;5109106;28;20260;-76
2023/09/15 07:26:38;;;;;;;0.10;0.10;;;;;;;;;;5107743;28;20236;-76
2023/09/15 07:29:04;;;;;;;0.10;0.10;;;;;;;;;;5109765;28;20273;-76
2023/09/15 07:31:34;;;;;;;0.10;0.10;;;;;;;;;;5106794;28;20234;-76
2023/09/15 07:34:00;;;;;;;0.10;0.10;;;;;;;;;;5110266;28;20240;-75
2023/09/15 07:36:26;;;;;;;0.10;0.10;;;;;;;;;;5105956;28;20316;-75
2023/09/15 07:38:53;;;;;;;0.10;0.10;;;;;;;;;;5111451;28;20535;-75
2023/09/15 07:41:20;;;;;;;0.10;0.10;;;;;;;;;;5105262;28;20298;-75
2023/09/15 07:43:46;;;;;;;0.10;0.10;;;;;;;;;;5111655;28;20212;-75
2023/09/15 07:46:13;;;;;;;0.10;0.10;;;;;;;;;;5104199;28;20316;-74
2023/09/15 07:48:41;;;;;;;0.10;0.10;;;;;;;;;;5112433;28;20206;-76
2023/09/15 07:51:08;;;;;;;0.10;0.10;;;;;;;;;;5103339;28;20238;-75
2023/09/15 07:53:34;;;;;;;0.10;0.10;;;;;;;;;;5113349;28;20203;-75
2023/09/15 07:56:00;;;;;;;0.10;0.10;;;;;;;;;;5102464;28;20237;-75
2023/09/15 07:58:28;;;;;;;0.10;0.10;;;;;;;;;;5113954;28;20209;-75
2023/09/15 08:00:57;;;;;;;0.10;0.10;;;;;;;;;;5101638;28;20243;-75
2023/09/15 08:03:23;;;;;;;0.10;0.10;;;;;;;;;;5114710;28;20202;-75
2023/09/15 08:05:51;;;;;;;0.00;0.00;;;;;;;;;;5100666;28;20241;-76
2023/09/15 08:08:17;;;;;;;0.10;0.10;;;;;;;;;;5115449;28;20249;-75
2023/09/15 08:10:45;;;;;;;0.10;0.10;;;;;;;;;;5099830;28;20287;-76
2023/09/15 08:13:11;;;;;;;0.10;0.10;;;;;;;;;;5115851;28;20209;-75
2023/09/15 08:15:37;;;;;;;0.10;0.10;;;;;;;;;;5098670;28;20376;-76
2023/09/15 08:18:04;;;;;;;0.10;0.10;;;;;;;;;;5116951;28;20279;-75
2023/09/15 08:20:30;;;;;;;0.00;0.00;;;;;;;;;;5097695;28;20249;-75
2023/09/15 08:22:58;;;;;;;0.10;0.10;;;;;;;;;;5117844;28;20198;-76
2023/09/15 08:25:26;;;;;;;0.10;0.10;;;;;;;;;;5097110;28;20488;-75
2023/09/15 08:27:52;;;;;;;0.10;0.10;;;;;;;;;;5118050;28;20216;-75
2023/09/15 08:30:22;;;;;;;0.03;0.03;;;;;;;;;;5096184;28;20277;-75
2023/09/15 08:32:48;;;;;;;0.10;0.10;;;;;;;;;;5118749;28;20377;-76
2023/09/15 08:35:15;;;;;;;0.10;0.10;;;;;;;;;;5095559;28;20200;-75
2023/09/15 08:37:41;;;;;;;0.10;0.10;;;;;;;;;;5119342;28;20220;-76
2023/09/15 08:40:10;;;;;;;0.10;0.10;;;;;;;;;;5101980;28;20238;-75
2023/09/15 08:42:36;;;;;;;0.00;0.00;;;;;;;;;;5119962;28;20240;-75
2023/09/15 08:45:05;;;;;;;0.00;0.00;;;;;;;;;;5104721;28;20297;-74
2023/09/15 08:47:34;;;;;;;0.10;0.10;;;;;;;;;;5110078;28;20234;-74
2023/09/15 08:50:01;;;;;;;0.08;0.08;;;;;;;;;;5104534;28;20228;-75
2023/09/15 08:52:28;;;;;;;0.10;0.10;;;;;;;;;;5110098;28;20235;-75
2023/09/15 08:54:55;;;;;;;0.10;0.10;;;;;;;;;;5104377;28;20243;-75
2023/09/15 08:57:23;;;;;;;0.10;0.10;;;;;;;;;;5109960;28;20290;-74
2023/09/15 08:59:50;;;;;;;0.00;0.00;;;;;;;;;;5104391;28;20210;-75
2023/09/15 09:02:17;;;;;;;0.00;0.00;;;;;;;;;;5110017;28;20489;-75
2023/09/15 09:04:43;;;;;;;0.00;0.00;;;;;;;;;;5104464;28;20203;-76
2023/09/15 09:07:11;;;;;;;0.10;0.10;;;;;;;;;;5109827;28;20293;-76
2023/09/15 09:09:39;;;;;;;0.10;0.10;;;;;;;;;;5104343;28;20301;-76
2023/09/15 09:12:05;;;;;;;0.00;0.00;;;;;;;;;;5109703;28;20300;-76
2023/09/15 09:14:33;;;;;;;0.05;0.05;;;;;;;;;;5104410;28;20198;-76
2023/09/15 09:17:01;;;;;;;0.00;0.00;;;;;;;;;;5108823;28;20238;-77
2023/09/15 09:19:35;;;;;;;0.22;0.22;;;;;;;;;;5105235;28;20391;-76
2023/09/15 09:22:01;;;;;;;0.00;0.00;;;;;;;;;;5108781;28;20249;-77
2023/09/15 09:24:28;;;;;;;0.00;0.00;;;;;;;;;;5104723;28;20447;-77
2023/09/15 09:26:55;;;;;;;0.50;0.50;;;;;;;;;;5107672;28;20238;-76
2023/09/15 09:29:24;;;;;;;0.20;0.20;;;;;;;;;;5105755;28;20391;-77
2023/09/15 09:31:52;;;;;;;0.50;0.50;;;;;;;;;;5106839;28;20362;-77
2023/09/15 09:34:19;;;;;;;0.00;0.00;;;;;;;;;;5105797;28;20241;-77
2023/09/15 09:36:47;;;;;;;0.00;0.00;;;;;;;;;;5106556;28;20279;-77
2023/09/15 09:39:14;;;;;;;0.38;0.38;;;;;;;;;;5106550;28;20397;-77
2023/09/15 09:41:40;;;;;;;0.10;0.10;;;;;;;;;;5105754;28;20237;-76
2023/09/15 09:44:07;;;;;;;0.00;0.00;;;;;;;;;;5107225;28;20210;-77
2023/09/15 09:46:36;;;;;;;0.00;0.00;;;;;;;;;;5104946;28;20245;-77
2023/09/15 09:49:03;;;;;;;0.00;0.00;;;;;;;;;;5107858;28;20244;-78
2023/09/15 09:51:30;;;;;;;0.10;0.10;;;;;;;;;;5104586;28;20250;-78
2023/09/15 09:53:56;;;;;;;0.00;0.00;;;;;;;;;;5108577;28;20231;-78
2023/09/15 09:56:23;;;;;;;0.00;0.00;;;;;;;;;;5103810;28;20421;-80
2023/09/15 09:58:49;;;;;;;0.00;0.00;;;;;;;;;;5109540;28;20234;-81
2023/09/15 10:01:16;;;;;;;0.00;0.00;;;;;;;;;;5102474;28;20244;-80
2023/09/15 10:03:42;;;;;;;0.00;0.00;;;;;;;;;;5110671;28;20206;-80
2023/09/15 10:06:10;;;;;;;0.00;0.00;;;;;;;;;;5101574;28;20305;-80
2023/09/15 10:08:39;;;;;;;0.00;0.00;;;;;;;;;;5111525;28;20344;-79
2023/09/15 10:11:06;;;;;;;0.10;0.10;;;;;;;;;;5101049;28;20238;-79
2023/09/15 10:13:33;;;;;;;0.00;0.00;;;;;;;;;;5111300;28;20207;-83
2023/09/15 10:15:59;;;;;;;0.00;0.00;;;;;;;;;;5100241;28;20256;-80
2023/09/15 10:18:26;;;;;;;0.05;0.05;;;;;;;;;;5112156;28;20263;-80
2023/09/15 10:20:54;;;;;;;0.00;0.00;;;;;;;;;;5099310;28;20263;-80
2023/09/15 10:23:23;;;;;;;0.00;0.00;;;;;;;;;;5112925;28;20203;-80
2023/09/15 10:25:50;;;;;;;0.05;0.05;;;;;;;;;;5098751;28;20246;-80
2023/09/15 10:28:18;;;;;;;0.00;0.00;;;;;;;;;;5113859;28;20394;-79
2023/09/15 10:30:44;;;;;;;0.05;0.05;;;;;;;;;;5097876;28;20250;-80
2023/09/15 10:33:10;;;;;;;0.00;0.00;;;;;;;;;;5114187;28;20191;-79
2023/09/15 10:35:38;;;;;;;0.00;0.00;;;;;;;;;;5097112;28;20309;-79
2023/09/15 10:38:05;;;;;;;0.00;0.00;;;;;;;;;;5114987;28;20237;-79
2023/09/15 10:40:45;;;;;;;0.00;0.00;;;;;;;;;;5096294;28;20249;-80
2023/09/15 10:43:12;;;;;;;0.00;0.00;;;;;;;;;;5115658;28;20273;-80
2023/09/15 10:45:38;;;;;;;0.55;0.55;;;;;;;;;;5100933;28;20238;-80
2023/09/15 10:48:05;;;;;;;0.10;0.10;;;;;;;;;;5118544;28;20234;-79
2023/09/15 10:50:32;;;;;;;0.00;0.00;;;;;;;;;;5100072;28;20237;-80
2023/09/15 10:53:06;;;;;;;0.00;0.00;;;;;;;;;;5119404;28;20198;-79
2023/09/15 10:55:33;;;;;;;0.00;0.00;;;;;;;;;;5100078;28;20253;-75
2023/09/15 10:58:01;;;;;;;0.00;0.00;;;;;;;;;;5119230;28;20555;-75
2023/09/15 11:00:28;;;;;;;0.00;0.00;;;;;;;;;;5099155;28;20246;-74
2023/09/15 11:02:54;;;;;;;0.00;0.00;;;;;;;;;;5120104;28;20191;-74
2023/09/15 11:05:20;;;;;;;0.00;0.00;;;;;;;;;;5098162;28;20237;-74
2023/09/15 11:07:47;;;;;;;0.00;0.00;;;;;;;;;;5120529;28;20277;-78
2023/09/15 11:10:14;;;;;;;0.00;0.00;;;;;;;;;;5097219;28;20382;-79
2023/09/15 11:12:40;;;;;;;0.00;0.00;;;;;;;;;;5121528;28;20183;-73
2023/09/15 11:15:10;;;;;;;0.00;0.00;;;;;;;;;;5106635;28;20273;-76
2023/09/15 11:17:37;;;;;;;0.00;0.00;;;;;;;;;;5094708;28;20210;-76
2023/09/15 11:20:05;;;;;;;0.00;0.00;;;;;;;;;;5106553;28;20210;-76
2023/09/15 11:22:32;;;;;;;0.20;0.20;;;;;;;;;;5111972;28;20239;-77
2023/09/15 11:24:59;;;;;;;0.20;0.20;;;;;;;;;;5105994;28;20230;-76
2023/09/15 11:27:25;;;;;;;0.00;0.00;;;;;;;;;;5111780;28;20309;-76
2023/09/15 11:29:51;;;;;;;0.00;0.00;;;;;;;;;;5106343;28;20445;-76
2023/09/15 11:32:19;;;;;;;0.00;0.00;;;;;;;;;;5111757;28;20304;-76
2023/09/15 11:34:46;;;;;;;0.00;0.00;;;;;;;;;;5106190;28;20214;-76
2023/09/15 11:37:14;;;;;;;0.10;0.10;;;;;;;;;;5111567;28;20297;-76
2023/09/15 11:39:40;;;;;;;0.00;0.00;;;;;;;;;;5105689;28;20558;-76
2023/09/15 11:42:12;;;;;;;0.00;0.00;;;;;;;;;;5111257;28;20321;-76
2023/09/15 11:44:39;;;;;;;0.00;0.00;;;;;;;;;;5105974;28;20210;-76
2023/09/15 11:47:07;;;;;;;0.00;0.00;;;;;;;;;;5110916;28;20230;-76
2023/09/15 11:49:35;;;;;;;0.10;0.10;;;;;;;;;;5105723;28;20550;-76
2023/09/15 11:52:03;;;;;;;0.00;0.00;;;;;;;;;;5110434;28;20265;-75
2023/09/15 11:54:30;;;;;;;0.00;0.00;;;;;;;;;;5105677;28;20202;-76
2023/09/15 11:56:57;;;;;;;0.10;0.10;;;;;;;;;;5109866;28;20436;-75
2023/09/15 11:59:24;;;;;;;0.00;0.00;;;;;;;;;;5106636;28;20210;-75
2023/09/15 12:01:54;;;;;;;0.00;0.00;;;;;;;;;;5108686;28;20258;-77
2023/09/15 12:04:21;;;;;;;0.00;0.00;;;;;;;;;;5107542;28;20214;-76
2023/09/15 12:06:49;;;;;;;0.00;0.00;;;;;;;;;;5108170;28;20471;-74
2023/09/15 12:09:17;;;;;;;0.00;0.00;;;;;;;;;;5107736;28;20457;-75
2023/09/15 12:11:44;;;;;;;0.00;0.00;;;;;;;;;;5107497;28;20244;-76
2023/09/15 12:14:12;;;;;;;0.00;0.00;;;;;;;;;;5108041;28;20252;-75
2023/09/15 12:16:38;;;;;;;0.00;0.00;;;;;;;;;;5106678;28;20298;-76
2023/09/15 12:19:05;;;;;;;0.00;0.00;;;;;;;;;;5108816;28;20281;-75
2023/09/15 12:21:31;;;;;;;0.00;0.00;;;;;;;;;;5105768;28;20261;-76
2023/09/15 12:24:09;;;;;;;0.00;0.00;;;;;;;;;;5109571;28;20255;-76
2023/09/15 12:26:36;;;;;;;0.00;0.00;;;;;;;;;;5106223;28;20494;-76
2023/09/15 12:29:03;;;;;;;0.00;0.00;;;;;;;;;;5108738;28;20202;-76
2023/09/15 12:31:29;;;;;;;0.00;0.00;;;;;;;;;;5105293;28;20249;-76
2023/09/15 12:33:56;;;;;;;0.00;0.00;;;;;;;;;;5109925;28;20241;-76
2023/09/15 12:36:23;;;;;;;0.00;0.00;;;;;;;;;;5104394;28;20241;-76
2023/09/15 12:38:50;;;;;;;0.00;0.00;;;;;;;;;;5110315;28;20234;-76
2023/09/15 12:41:18;;;;;;;0.00;0.00;;;;;;;;;;5103567;28;20453;-76
2023/09/15 12:43:45;;;;;;;0.00;0.00;;;;;;;;;;5111282;28;20230;-76
2023/09/15 12:46:11;;;;;;;0.00;0.00;;;;;;;;;;5102516;28;20596;-75
2023/09/15 12:48:38;;;;;;;0.00;0.00;;;;;;;;;;5112031;28;20271;-76
2023/09/15 12:51:05;;;;;;;0.00;0.00;;;;;;;;;;5101534;28;20291;-76
2023/09/15 12:53:31;;;;;;;0.00;0.00;;;;;;;;;;5112775;28;20410;-76
2023/09/15 12:56:00;;;;;;;0.10;0.10;;;;;;;;;;5100733;28;20485;-76
2023/09/15 12:58:27;;;;;;;0.00;0.00;;;;;;;;;;5113397;28;20402;-77
2023/09/15 13:00:54;;;;;;;0.00;0.00;;;;;;;;;;5100149;28;20328;-77
2023/09/15 13:03:20;;;;;;;0.00;0.00;;;;;;;;;;5113776;28;20234;-76
2023/09/15 13:05:46;;;;;;;0.00;0.00;;;;;;;;;;5098898;28;20381;-76
2023/09/15 13:08:13;;;;;;;0.85;0.85;;;;;;;;;;5114546;28;20452;-76
2023/09/15 13:10:40;;;;;;;0.00;0.00;;;;;;;;;;5098380;28;20244;-77
2023/09/15 13:13:07;;;;;;;0.00;0.00;;;;;;;;;;5115709;28;20244;-77
2023/09/15 13:15:35;;;;;;;0.00;0.00;;;;;;;;;;5097318;28;20428;-76
2023/09/15 13:18:02;;;;;;;0.00;0.00;;;;;;;;;;5116627;28;20367;-76
2023/09/15 13:20:28;;;;;;;0.00;0.00;;;;;;;;;;5096825;28;20577;-76
2023/09/15 13:22:55;;;;;;;0.00;0.00;;;;;;;;;;5117225;28;20191;-76
2023/09/15 13:25:21;;;;;;;0.00;0.00;;;;;;;;;;5095576;28;20222;-76
2023/09/15 13:27:48;;;;;;;0.00;0.00;;;;;;;;;;5117671;28;20226;-76
2023/09/15 13:30:14;;;;;;;0.00;0.00;;;;;;;;;;5094465;28;20207;-75
2023/09/15 13:32:43;;;;;;;0.00;0.00;;;;;;;;;;5118915;28;20261;-76
2023/09/15 13:35:10;;;;;;;0.00;0.00;;;;;;;;;;5093852;28;20206;-76
2023/09/15 13:37:36;;;;;;;0.00;0.00;;;;;;;;;;5119003;28;20231;-76
2023/09/15 13:40:03;;;;;;;0.00;0.00;;;;;;;;;;5103954;28;20206;-76
2023/09/15 13:42:30;;;;;;;0.00;0.00;;;;;;;;;;5109363;28;20242;-75
2023/09/15 13:44:56;;;;;;;0.00;0.00;;;;;;;;;;5103688;28;20381;-76
2023/09/15 13:47:23;;;;;;;0.00;0.00;;;;;;;;;;5109278;28;20505;-77
2023/09/15 13:49:50;;;;;;;0.00;0.00;;;;;;;;;;5103752;28;20234;-77
2023/09/15 13:52:17;;;;;;;0.00;0.00;;;;;;;;;;5108989;28;20261;-77
2023/09/15 13:54:43;;;;;;;0.00;0.00;;;;;;;;;;5103590;28;20234;-77
2023/09/15 13:57:10;;;;;;;0.00;0.00;;;;;;;;;;5108969;28;20305;-77
2023/09/15 13:59:36;;;;;;;0.00;0.00;;;;;;;;;;5103506;28;20550;-77
2023/09/15 14:02:02;;;;;;;0.00;0.00;;;;;;;;;;5107952;28;20245;-76
2023/09/15 14:04:29;;;;;;;0.05;0.05;;;;;;;;;;5104223;28;20394;-76
2023/09/15 14:07:00;;;;;;;0.00;0.00;;;;;;;;;;5107424;28;20480;-76
2023/09/15 14:09:26;;;;;;;0.10;0.10;;;;;;;;;;5104721;28;20213;-76
2023/09/15 14:11:52;;;;;;;0.00;0.00;;;;;;;;;;5107058;28;20296;-76
2023/09/15 14:14:19;;;;;;;0.00;0.00;;;;;;;;;;5105337;28;20234;-76
2023/09/15 14:16:45;;;;;;;0.10;0.10;;;;;;;;;;5105770;28;20308;-77
2023/09/15 14:19:12;;;;;;;0.00;0.00;;;;;;;;;;5109554;28;20234;-75
2023/09/15 14:21:38;;;;;;;0.00;0.00;;;;;;;;;;5108967;28;20302;-76
2023/09/15 14:24:07;;;;;;;0.00;0.00;;;;;;;;;;5111192;28;20565;-76
2023/09/15 14:26:33;;;;;;;0.00;0.00;;;;;;;;;;5108210;28;20238;-76
2023/09/15 14:28:59;;;;;;;0.00;0.00;;;;;;;;;;5111663;28;20230;-77
2023/09/15 14:31:26;;;;;;;0.00;0.00;;;;;;;;;;5107085;28;20261;-76
2023/09/15 14:33:52;;;;;;;0.00;0.00;;;;;;;;;;5112671;28;20244;-77
2023/09/15 14:36:19;;;;;;;0.00;0.00;;;;;;;;;;5106133;28;20242;-76
2023/09/15 14:38:45;;;;;;;0.00;0.00;;;;;;;;;;5113343;28;20273;-77
2023/09/15 14:41:13;;;;;;;0.00;0.00;;;;;;;;;;5104993;28;20247;-77